createdAt,value
2022-12-04T00:01:05.817Z,67.14
2022-12-04T00:03:40.764Z,67.16
2022-12-04T00:06:15.385Z,66.87
2022-12-04T00:08:52.000Z,67.57
2022-12-04T00:11:27.792Z,67.24
2022-12-04T00:14:06.836Z,67.21
2022-12-04T00:16:40.435Z,67.34
2022-12-04T00:19:14.650Z,67.21
2022-12-04T00:21:48.356Z,67.24
2022-12-04T00:24:21.299Z,67.51
2022-12-04T00:26:54.014Z,66.64
2022-12-04T00:29:26.873Z,67.13
2022-12-04T00:31:59.843Z,67.16
2022-12-04T00:34:34.050Z,66.95
2022-12-04T00:37:09.910Z,66.63
2022-12-04T00:39:42.733Z,67.01
2022-12-04T00:42:15.736Z,66.88
2022-12-04T00:44:48.423Z,66.44
2022-12-04T00:47:21.294Z,66.70
2022-12-04T00:49:56.207Z,66.79
2022-12-04T00:52:30.881Z,67.09
2022-12-04T00:55:04.196Z,67.27
2022-12-04T00:57:37.464Z,67.13
2022-12-04T01:00:10.929Z,67.22
2022-12-04T01:02:43.933Z,67.09
2022-12-04T01:05:18.409Z,67.25
2022-12-04T01:07:51.540Z,66.80
2022-12-04T01:10:24.883Z,67.40
2022-12-04T01:12:58.802Z,67.56
2022-12-04T01:15:31.863Z,67.07
2022-12-04T01:18:04.805Z,67.58
2022-12-04T01:20:39.047Z,67.19
2022-12-04T01:23:12.432Z,66.78
2022-12-04T01:25:52.207Z,67.04
2022-12-04T01:28:30.162Z,67.34
2022-12-04T01:31:07.580Z,67.11
2022-12-04T01:33:42.949Z,67.39
2022-12-04T01:36:21.906Z,67.78
2022-12-04T01:38:55.377Z,67.55
2022-12-04T01:41:30.744Z,67.25
2022-12-04T01:44:17.877Z,66.80
2022-12-04T01:46:53.520Z,66.93
2022-12-04T01:49:30.831Z,66.81
2022-12-04T01:52:08.055Z,66.86
2022-12-04T01:54:44.009Z,66.93
2022-12-04T01:57:19.686Z,66.70
2022-12-04T01:59:56.871Z,66.66
2022-12-04T02:02:33.708Z,66.69
2022-12-04T02:05:09.884Z,66.54
2022-12-04T02:07:50.307Z,67.20
2022-12-04T02:10:32.189Z,66.92
2022-12-04T02:13:16.049Z,66.97
2022-12-04T02:15:55.281Z,66.83
2022-12-04T02:18:35.379Z,67.30
2022-12-04T02:21:15.597Z,67.19
2022-12-04T02:24:16.577Z,66.85
2022-12-04T02:26:54.605Z,66.81
2022-12-04T02:29:39.029Z,67.25
2022-12-04T02:32:20.194Z,66.83
2022-12-04T02:34:59.047Z,66.52
2022-12-04T02:37:37.508Z,66.42
2022-12-04T02:40:18.489Z,66.65
2022-12-04T02:42:56.470Z,66.27
2022-12-04T02:45:36.255Z,66.52
2022-12-04T02:48:10.336Z,66.72
2022-12-04T02:50:44.237Z,66.63
2022-12-04T02:53:20.536Z,67.06
2022-12-04T02:55:57.045Z,66.96
2022-12-04T02:58:35.938Z,66.44
2022-12-04T03:01:23.910Z,66.38
2022-12-04T03:04:06.386Z,66.64
2022-12-04T03:06:43.213Z,66.42
2022-12-04T03:09:21.238Z,66.79
2022-12-04T03:11:57.866Z,66.84
2022-12-04T03:14:34.902Z,66.48
2022-12-04T03:17:17.915Z,66.77
2022-12-04T03:19:55.231Z,66.72
2022-12-04T03:22:32.777Z,67.01
2022-12-04T03:25:09.591Z,66.97
2022-12-04T03:27:49.743Z,67.06
2022-12-04T03:30:23.711Z,66.68
2022-12-04T03:33:04.531Z,67.12
2022-12-04T03:35:45.312Z,66.53
2022-12-04T03:38:28.991Z,66.53
2022-12-04T03:41:05.866Z,66.75
2022-12-04T03:43:48.208Z,66.73
2022-12-04T03:46:28.042Z,66.13
2022-12-04T03:49:10.223Z,66.33
2022-12-04T03:51:48.596Z,66.25
2022-12-04T03:54:25.154Z,66.20
2022-12-04T03:57:05.338Z,66.45
2022-12-04T03:59:41.820Z,66.32
2022-12-04T04:02:24.634Z,66.25
2022-12-04T04:05:04.492Z,66.33
2022-12-04T04:07:43.625Z,66.59
2022-12-04T04:10:26.118Z,66.95
2022-12-04T04:13:21.169Z,66.79
2022-12-04T04:16:14.708Z,66.94
2022-12-04T04:19:07.654Z,66.50
2022-12-04T04:22:01.705Z,66.67
2022-12-04T04:24:40.830Z,66.84
2022-12-04T04:27:13.776Z,66.54
2022-12-04T04:29:52.338Z,66.55
2022-12-04T04:32:32.122Z,66.90
2022-12-04T04:35:16.122Z,66.62
2022-12-04T04:37:58.978Z,66.72
2022-12-04T04:40:39.213Z,66.29
2022-12-04T04:43:20.046Z,67.13
2022-12-04T04:45:59.485Z,66.86
2022-12-04T04:48:38.335Z,67.12
2022-12-04T04:51:12.721Z,66.94
2022-12-04T04:53:52.970Z,66.55
2022-12-04T04:56:26.372Z,66.73
2022-12-04T04:59:02.008Z,67.17
2022-12-04T05:01:39.384Z,66.67
2022-12-04T05:04:19.936Z,66.31
2022-12-04T05:06:52.947Z,66.93
2022-12-04T05:09:27.655Z,66.35
2022-12-04T05:12:07.105Z,66.10
2022-12-04T05:14:40.184Z,66.85
2022-12-04T05:17:13.168Z,66.43
2022-12-04T05:19:54.533Z,66.58
2022-12-04T05:22:31.661Z,65.84
2022-12-04T05:25:06.830Z,66.47
2022-12-04T05:27:40.106Z,66.41
2022-12-04T05:30:13.615Z,66.96
2022-12-04T05:32:46.723Z,66.54
2022-12-04T05:35:19.789Z,66.42
2022-12-04T05:37:52.675Z,66.73
2022-12-04T05:40:26.736Z,66.79
2022-12-04T05:42:59.652Z,66.50
2022-12-04T05:45:32.857Z,66.26
2022-12-04T05:48:06.135Z,66.08
2022-12-04T05:50:39.306Z,66.30
2022-12-04T05:53:12.315Z,66.64
2022-12-04T05:55:46.424Z,66.47
2022-12-04T05:58:19.332Z,66.61
2022-12-04T06:00:54.830Z,66.63
2022-12-04T06:03:30.692Z,66.77
2022-12-04T06:06:06.545Z,66.87
2022-12-04T06:08:39.459Z,66.70
2022-12-04T06:11:16.734Z,66.08
2022-12-04T06:13:50.029Z,66.78
2022-12-04T06:16:27.248Z,66.77
2022-12-04T06:19:02.351Z,66.98
2022-12-04T06:21:37.233Z,66.50
2022-12-04T06:24:13.978Z,66.85
2022-12-04T06:27:18.955Z,66.80
2022-12-04T06:29:41.632Z,66.41
2022-12-04T06:32:20.964Z,66.60
2022-12-04T06:34:55.695Z,66.86
2022-12-04T06:37:28.751Z,66.56
2022-12-04T06:40:03.922Z,66.67
2022-12-04T06:42:43.782Z,66.82
2022-12-04T06:45:20.252Z,67.24
2022-12-04T06:47:56.194Z,67.23
2022-12-04T06:50:31.853Z,67.55
2022-12-04T06:53:08.358Z,67.33
2022-12-04T06:55:41.526Z,67.31
2022-12-04T06:58:15.518Z,67.29
2022-12-04T07:00:48.573Z,67.43
2022-12-04T07:03:22.198Z,67.24
2022-12-04T07:05:54.926Z,67.33
2022-12-04T07:08:27.747Z,67.11
2022-12-04T07:11:03.338Z,67.04
2022-12-04T07:13:37.849Z,67.71
2022-12-04T07:16:14.507Z,67.49
2022-12-04T07:18:50.390Z,68.07
2022-12-04T07:21:26.184Z,68.04
2022-12-04T07:24:01.907Z,68.08
2022-12-04T07:26:38.213Z,68.06
2022-12-04T07:29:15.906Z,68.22
2022-12-04T07:31:51.813Z,67.84
2022-12-04T07:34:28.949Z,68.26
2022-12-04T07:37:02.530Z,68.12
2022-12-04T07:39:35.936Z,67.91
2022-12-04T07:42:08.882Z,68.16
2022-12-04T07:44:50.950Z,67.75
2022-12-04T07:47:24.153Z,68.02
2022-12-04T07:49:57.699Z,67.90
2022-12-04T07:52:31.313Z,67.87
2022-12-04T07:55:08.499Z,67.46
2022-12-04T07:57:43.566Z,67.31
2022-12-04T08:00:19.235Z,67.39
2022-12-04T08:02:52.854Z,67.65
2022-12-04T08:05:28.189Z,67.84
2022-12-04T08:08:01.340Z,67.68
2022-12-04T08:10:34.360Z,67.87
2022-12-04T08:13:07.263Z,67.61
2022-12-04T08:15:41.483Z,67.46
2022-12-04T08:18:17.621Z,67.97
2022-12-04T08:20:50.668Z,67.49
2022-12-04T08:23:24.042Z,67.37
2022-12-04T08:26:02.511Z,67.59
2022-12-04T08:28:39.305Z,67.54
2022-12-04T08:31:16.919Z,67.88
2022-12-04T08:33:51.518Z,68.43
2022-12-04T08:36:25.175Z,68.02
2022-12-04T08:39:00.124Z,68.00
2022-12-04T08:41:36.062Z,68.05
2022-12-04T08:44:09.296Z,67.74
2022-12-04T08:46:43.842Z,67.81
2022-12-04T08:49:16.857Z,67.95
2022-12-04T08:51:49.448Z,67.75
2022-12-04T08:54:23.204Z,67.58
2022-12-04T08:56:56.057Z,68.01
2022-12-04T08:59:29.270Z,67.56
2022-12-04T09:02:03.499Z,67.41
2022-12-04T09:04:36.899Z,67.10
2022-12-04T09:07:09.692Z,67.26
2022-12-04T09:09:48.089Z,67.29
2022-12-04T09:12:21.254Z,66.91
2022-12-04T09:14:54.038Z,67.15
2022-12-04T09:17:28.149Z,67.22
2022-12-04T09:20:01.808Z,67.05
2022-12-04T09:22:57.709Z,67.28
2022-12-04T09:25:27.815Z,67.07
2022-12-04T09:28:00.567Z,66.19
2022-12-04T09:30:33.296Z,66.76
2022-12-04T09:33:07.442Z,67.04
2022-12-04T09:35:40.291Z,66.76
2022-12-04T09:38:13.029Z,67.02
2022-12-04T09:40:51.166Z,66.56
2022-12-04T09:43:32.167Z,66.53
2022-12-04T09:46:10.604Z,67.01
2022-12-04T09:48:48.625Z,66.90
2022-12-04T09:51:24.935Z,66.60
2022-12-04T09:54:01.701Z,67.07
2022-12-04T09:56:34.472Z,66.66
2022-12-04T09:59:13.480Z,66.89
2022-12-04T10:01:49.277Z,66.34
2022-12-04T10:04:23.633Z,66.27
2022-12-04T10:07:04.093Z,65.99
2022-12-04T10:09:43.449Z,66.25
2022-12-04T10:12:24.845Z,66.40
2022-12-04T10:15:08.630Z,66.70
2022-12-04T10:18:04.815Z,66.68
2022-12-04T10:20:55.342Z,67.11
2022-12-04T10:23:39.647Z,66.44
2022-12-04T10:26:17.079Z,66.38
2022-12-04T10:28:56.301Z,66.28
2022-12-04T10:31:30.734Z,66.14
2022-12-04T10:34:08.652Z,66.08
2022-12-04T10:36:46.856Z,66.21
2022-12-04T10:39:25.885Z,66.39
2022-12-04T10:42:05.000Z,67.05
2022-12-04T10:44:37.690Z,66.31
2022-12-04T10:47:13.164Z,66.14
2022-12-04T10:49:46.177Z,66.14
2022-12-04T10:52:20.309Z,66.37
2022-12-04T10:54:57.547Z,66.61
2022-12-04T10:57:38.828Z,66.47
2022-12-04T11:00:30.582Z,66.76
2022-12-04T11:03:10.097Z,66.21
2022-12-04T11:05:47.374Z,67.27
2022-12-04T11:08:26.893Z,67.16
2022-12-04T11:11:02.537Z,66.90
2022-12-04T11:13:36.327Z,67.01
2022-12-04T11:16:34.442Z,66.46
2022-12-04T11:19:21.424Z,66.60
2022-12-04T11:21:56.951Z,65.89
2022-12-04T11:24:34.435Z,65.92
2022-12-04T11:27:16.462Z,66.59
2022-12-04T11:29:49.848Z,66.38
2022-12-04T11:32:25.110Z,65.88
2022-12-04T11:35:02.296Z,66.11
2022-12-04T11:37:39.227Z,66.25
2022-12-04T11:40:20.408Z,65.78
2022-12-04T11:43:05.087Z,65.81
2022-12-04T11:45:38.059Z,65.74
2022-12-04T11:48:16.122Z,66.03
2022-12-04T11:50:55.292Z,66.11
2022-12-04T11:53:45.033Z,66.80
2022-12-04T11:56:33.086Z,66.96
2022-12-04T11:59:34.444Z,66.86
2022-12-04T12:02:22.979Z,66.88
2022-12-04T12:05:09.657Z,66.46
2022-12-04T12:07:49.346Z,67.33
2022-12-04T12:10:31.896Z,66.63
2022-12-04T12:13:13.852Z,66.95
2022-12-04T12:15:53.338Z,67.20
2022-12-04T12:18:47.736Z,67.23
2022-12-04T12:21:26.025Z,66.77
2022-12-04T12:24:10.749Z,66.47
2022-12-04T12:26:50.648Z,66.55
2022-12-04T12:29:38.829Z,66.37
2022-12-04T12:32:27.662Z,67.09
2022-12-04T12:35:01.945Z,66.80
2022-12-04T12:37:43.048Z,66.17
2022-12-04T12:40:24.286Z,66.31
2022-12-04T12:43:02.522Z,67.06
2022-12-04T12:45:44.148Z,66.40
2022-12-04T12:48:27.945Z,66.42
2022-12-04T12:51:29.133Z,66.46
2022-12-04T12:54:10.737Z,67.43
2022-12-04T12:56:50.068Z,66.86
2022-12-04T12:59:27.614Z,67.34
2022-12-04T13:02:10.435Z,66.92
2022-12-04T13:04:47.918Z,67.01
2022-12-04T13:07:33.983Z,66.77
2022-12-04T13:10:15.044Z,66.73
2022-12-04T13:12:52.658Z,67.00
2022-12-04T13:15:33.423Z,66.90
2022-12-04T13:18:11.735Z,66.78
2022-12-04T13:20:51.362Z,66.79
2022-12-04T13:23:38.854Z,66.80
2022-12-04T13:26:21.196Z,66.67
2022-12-04T13:29:01.147Z,66.83
2022-12-04T13:31:43.523Z,66.75
2022-12-04T13:34:44.000Z,66.89
2022-12-04T13:37:29.699Z,67.02
2022-12-04T13:40:33.540Z,67.33
2022-12-04T13:43:37.484Z,67.47
2022-12-04T13:46:26.784Z,67.50
2022-12-04T13:49:09.750Z,67.96
2022-12-04T13:51:45.709Z,67.25
2022-12-04T13:54:27.576Z,67.16
2022-12-04T13:57:19.471Z,67.11
2022-12-04T14:00:04.268Z,67.40
2022-12-04T14:02:52.210Z,67.24
2022-12-04T14:05:32.511Z,67.01
2022-12-04T14:08:23.954Z,67.10
2022-12-04T14:11:03.393Z,66.93
2022-12-04T14:13:44.254Z,67.36
2022-12-04T14:16:22.173Z,67.11
2022-12-04T14:18:57.498Z,67.45
2022-12-04T14:21:40.334Z,67.27
2022-12-04T14:24:37.275Z,67.25
2022-12-04T14:27:33.330Z,67.18
2022-12-04T14:30:16.231Z,67.36
2022-12-04T14:32:51.483Z,67.65
2022-12-04T14:35:29.699Z,67.47
2022-12-04T14:38:05.001Z,67.24
2022-12-04T14:40:44.804Z,67.31
2022-12-04T14:43:20.201Z,67.44
2022-12-04T14:45:59.953Z,67.56
2022-12-04T14:48:41.177Z,67.58
2022-12-04T14:51:23.828Z,67.19
2022-12-04T14:54:04.475Z,67.33
2022-12-04T14:56:52.055Z,67.36
2022-12-04T14:59:34.204Z,67.33
2022-12-04T15:02:13.539Z,67.75
2022-12-04T15:04:48.441Z,67.76
2022-12-04T15:07:23.181Z,67.77
2022-12-04T15:10:15.519Z,67.94
2022-12-04T15:12:56.777Z,67.58
2022-12-04T15:15:33.345Z,67.59
2022-12-04T15:18:14.409Z,68.09
2022-12-04T15:20:58.046Z,67.75
2022-12-04T15:23:36.061Z,68.05
2022-12-04T15:26:13.239Z,67.73
2022-12-04T15:28:51.803Z,67.58
2022-12-04T15:31:29.483Z,67.79
2022-12-04T15:34:07.462Z,67.64
2022-12-04T15:36:46.045Z,68.03
2022-12-04T15:39:21.104Z,67.99
2022-12-04T15:42:06.358Z,67.83
2022-12-04T15:44:45.989Z,67.52
2022-12-04T15:47:23.203Z,67.63
2022-12-04T15:49:57.573Z,68.07
2022-12-04T15:52:31.640Z,67.88
2022-12-04T15:55:08.818Z,67.81
2022-12-04T15:57:44.901Z,67.82
2022-12-04T16:00:28.205Z,67.80
2022-12-04T16:03:01.989Z,68.56
2022-12-04T16:05:37.481Z,68.31
2022-12-04T16:08:27.009Z,68.31
2022-12-04T16:11:02.987Z,67.82
2022-12-04T16:13:38.330Z,67.78
2022-12-04T16:16:19.206Z,67.71
2022-12-04T16:18:52.193Z,67.94
2022-12-04T16:21:30.670Z,67.62
2022-12-04T16:24:03.889Z,67.98
2022-12-04T16:26:36.986Z,68.05
2022-12-04T16:29:10.789Z,68.01
2022-12-04T16:31:48.367Z,68.32
2022-12-04T16:34:21.462Z,68.36
2022-12-04T16:37:04.492Z,68.25
2022-12-04T16:39:41.320Z,68.47
2022-12-04T16:42:17.829Z,68.28
2022-12-04T16:44:51.256Z,68.28
2022-12-04T16:47:25.472Z,68.06
2022-12-04T16:49:58.784Z,68.08
2022-12-04T16:52:32.076Z,68.34
2022-12-04T16:55:12.147Z,68.55
2022-12-04T16:57:45.575Z,68.33
2022-12-04T17:00:19.622Z,68.16
2022-12-04T17:02:54.325Z,68.81
2022-12-04T17:05:29.213Z,68.45
2022-12-04T17:08:02.162Z,68.52
2022-12-04T17:10:34.896Z,68.44
2022-12-04T17:13:07.969Z,68.18
2022-12-04T17:15:40.889Z,68.55
2022-12-04T17:18:20.967Z,68.24
2022-12-04T17:20:54.901Z,68.52
2022-12-04T17:23:27.951Z,68.70
2022-12-04T17:26:05.127Z,68.70
2022-12-04T17:28:38.307Z,68.92
2022-12-04T17:31:16.813Z,68.60
2022-12-04T17:33:51.481Z,68.36
2022-12-04T17:36:27.609Z,67.95
2022-12-04T17:39:02.563Z,68.17
2022-12-04T17:41:35.715Z,68.08
2022-12-04T17:44:08.442Z,67.92
2022-12-04T17:46:41.431Z,68.35
2022-12-04T17:49:15.774Z,68.20
2022-12-04T17:51:49.018Z,68.37
2022-12-04T17:54:21.962Z,68.42
2022-12-04T17:56:57.941Z,68.51
2022-12-04T17:59:31.414Z,68.18
2022-12-04T18:02:04.724Z,68.58
2022-12-04T18:04:39.214Z,68.31
2022-12-04T18:07:12.228Z,68.43
2022-12-04T18:09:45.212Z,68.01
2022-12-04T18:12:18.263Z,68.49
2022-12-04T18:14:51.818Z,68.22
2022-12-04T18:17:24.868Z,68.62
2022-12-04T18:20:04.235Z,68.39
2022-12-04T18:22:39.281Z,68.89
2022-12-04T18:25:12.218Z,68.88
2022-12-04T18:27:45.020Z,68.12
2022-12-04T18:30:18.202Z,68.22
2022-12-04T18:32:51.480Z,68.36
2022-12-04T18:35:25.620Z,67.98
2022-12-04T18:37:58.699Z,68.55
2022-12-04T18:40:31.284Z,68.34
2022-12-04T18:43:06.120Z,67.72
2022-12-04T18:45:39.138Z,67.94
2022-12-04T18:48:14.861Z,68.34
2022-12-04T18:50:49.060Z,68.40
2022-12-04T18:53:22.270Z,68.38
2022-12-04T18:55:55.787Z,68.21
2022-12-04T18:58:29.035Z,68.35
2022-12-04T19:01:06.165Z,68.13
2022-12-04T19:03:38.992Z,68.12
2022-12-04T19:06:13.901Z,68.05
2022-12-04T19:08:46.719Z,68.13
2022-12-04T19:11:21.017Z,68.14
2022-12-04T19:13:53.882Z,68.80
2022-12-04T19:16:29.445Z,68.23
2022-12-04T19:19:02.873Z,68.09
2022-12-04T19:21:37.036Z,68.21
2022-12-04T19:24:11.198Z,68.22
2022-12-04T19:26:44.906Z,67.88
2022-12-04T19:29:18.214Z,68.15
2022-12-04T19:31:56.001Z,68.13
2022-12-04T19:34:32.181Z,68.19
2022-12-04T19:37:06.897Z,68.47
2022-12-04T19:39:46.058Z,68.68
2022-12-04T19:42:18.941Z,68.60
2022-12-04T19:44:51.798Z,68.65
2022-12-04T19:47:24.885Z,68.71
2022-12-04T19:49:58.276Z,68.60
2022-12-04T19:52:33.582Z,68.38
2022-12-04T19:55:08.989Z,68.31
2022-12-04T19:57:41.767Z,68.33
2022-12-04T20:00:15.640Z,68.23
2022-12-04T20:02:48.497Z,68.54
2022-12-04T20:05:23.924Z,68.53
2022-12-04T20:10:29.929Z,68.85
2022-12-04T20:13:02.600Z,68.55
2022-12-04T20:15:36.394Z,68.14
2022-12-04T20:18:09.160Z,68.21
2022-12-04T20:20:45.071Z,68.52
2022-12-04T20:23:19.300Z,68.22
2022-12-04T20:25:52.784Z,68.58
2022-12-04T20:28:25.547Z,68.64
2022-12-04T20:30:58.607Z,68.63
2022-12-04T20:33:31.431Z,68.50
2022-12-04T20:36:04.267Z,68.75
2022-12-04T20:38:40.030Z,68.60
2022-12-04T20:41:16.005Z,68.98
2022-12-04T20:43:48.997Z,68.89
2022-12-04T20:46:22.978Z,68.90
2022-12-04T20:48:55.867Z,69.37
2022-12-04T20:51:32.327Z,69.06
2022-12-04T20:54:07.873Z,69.02
2022-12-04T20:56:40.716Z,69.07
2022-12-04T20:59:15.339Z,69.28
2022-12-04T21:01:49.074Z,69.10
2022-12-04T21:04:22.786Z,69.20
2022-12-04T21:06:55.716Z,69.46
2022-12-04T21:09:30.903Z,69.63
2022-12-04T21:12:24.730Z,69.55
2022-12-04T21:15:15.100Z,69.43
2022-12-04T21:17:47.953Z,69.44
2022-12-04T21:20:20.803Z,69.88
2022-12-04T21:22:53.556Z,69.27
2022-12-04T21:25:27.769Z,69.45
2022-12-04T21:28:00.770Z,69.56
2022-12-04T21:30:33.820Z,69.24
2022-12-04T21:33:06.534Z,69.36
2022-12-04T21:35:40.256Z,69.44
2022-12-04T21:38:13.105Z,69.28
2022-12-04T21:40:49.368Z,69.69
2022-12-04T21:43:22.173Z,69.57
2022-12-04T21:46:02.021Z,69.57
2022-12-04T21:48:38.865Z,69.13
2022-12-04T21:51:26.881Z,69.24
2022-12-04T21:54:04.904Z,69.36
2022-12-04T21:56:38.924Z,69.40
2022-12-04T21:59:12.097Z,69.19
2022-12-04T22:01:44.893Z,69.45
2022-12-04T22:04:17.699Z,69.24
2022-12-04T22:06:50.774Z,69.03
2022-12-04T22:09:23.379Z,69.00
2022-12-04T22:11:57.497Z,69.01
2022-12-04T22:14:30.681Z,69.24
2022-12-04T22:17:03.420Z,69.39
2022-12-04T22:19:37.039Z,69.34
2022-12-04T22:22:09.745Z,69.34
2022-12-04T22:24:45.197Z,69.61
2022-12-04T22:27:19.378Z,69.77
2022-12-04T22:29:52.664Z,69.79
2022-12-04T22:32:25.393Z,69.58
2022-12-04T22:34:58.165Z,69.76
2022-12-04T22:37:31.096Z,69.69
2022-12-04T22:40:03.992Z,69.49
2022-12-04T22:42:38.492Z,69.70
2022-12-04T22:45:12.007Z,69.75
2022-12-04T22:47:44.934Z,69.73
2022-12-04T22:50:17.586Z,69.57
2022-12-04T22:52:50.591Z,69.75
2022-12-04T22:55:23.383Z,69.49
2022-12-04T22:57:57.493Z,69.86
2022-12-04T23:00:30.248Z,69.78
2022-12-04T23:03:03.028Z,70.07
2022-12-04T23:05:35.830Z,69.78
2022-12-04T23:08:08.951Z,70.28
2022-12-04T23:10:43.425Z,69.77
2022-12-04T23:13:17.573Z,70.06
2022-12-04T23:15:50.862Z,69.77
2022-12-04T23:18:23.735Z,70.25
2022-12-04T23:21:04.170Z,70.40
2022-12-04T23:23:40.909Z,70.08
2022-12-04T23:26:16.099Z,70.10
2022-12-04T23:28:50.378Z,70.16
2022-12-04T23:31:23.958Z,70.55
2022-12-04T23:33:56.834Z,70.09
2022-12-04T23:36:30.286Z,70.07
2022-12-04T23:39:03.154Z,70.28
2022-12-04T23:41:35.963Z,70.20
2022-12-04T23:44:10.091Z,70.71
2022-12-04T23:46:43.031Z,70.73
2022-12-04T23:49:15.675Z,71.16
2022-12-04T23:51:48.544Z,71.00
2022-12-04T23:54:21.416Z,70.86
2022-12-04T23:56:54.222Z,70.66
2022-12-04T23:59:28.462Z,70.70
